الصفحة الرئيسية
METAR-TAF:

METAR-TAF

مطار :

جزيرة كريسماس, أستراليا

دائرة عرض: 10-26S, خط طول: 105-41E, ارتفاع: 279 متر

مراقبة الطقس الحالي

تاريخ ووقت الإصدار 32 دقيقة قبل الساعة 09:30UTC
ريح 13 عقدة من الجنوب الشرقي
درجة الحرارة 25°درجة مئوية
الرطوبة 69%
ضغط 1012 hPa
الرؤية 10 كم أو أكثر
غيوم متفرقة على ارتفاع 2000 قدم
غيوم متفرقة على ارتفاع 3000 قدم

METAR: YPXM 290930Z AUTO 13013KT 9999 // SCT020 SCT030 25/19 Q1012

زمن: 17:02 (10:02 UTC)

توقعات

تاريخ ووقت الإصدار 4ساعات و 27 دقيقة قبل الساعة 05:35UTC
التوقعات صالحة من29 الساعة 06 UTC إلى 30 الساعة 06 UTC
ريح 15 عقدة من الجنوب الشرقي تتزايد حتى 25 عقدة
الرؤية 10 كم أو أكثر
غيوم مفككة على ارتفاع 2000 قدم
من 29 الساعة 1400 UTC
ريح 13 عقدة من الشرق/الجنوب الشرقي
الرؤية 10 كم أو أكثر
غيوم متفرقة على ارتفاع 2000 قدم
غيوم مفككة على ارتفاع 3000 قدم

TAF: YPXM 290535Z 2906/3006 13015G25KT 9999 BKN020 FM291400 12013KT 9999 SCT020 BKN030

أرصاد الطقس والتوقعات من أكثر من 4000 مطار (تقارير الطقس للمطار METAR والتنبؤ بالطقس بالمطارTAF).

المحطات المتاحة هي النقط الصفراء والحمراء على الخريطة.

حرك المؤشر فوق النقطة لمعرفة اسم المحطة.

ثم انقر لمعرفة أرصاد وتوقعات الطقس.

لتغيير الخارطة: اضغط على الأزرار الخضراء مع رمز الصليب الأسود للتكبير. على الزر الأخضر مع شرطة للتصغير، أو على الأسهم الخضراء للخرائط المجاورة.


METAR-TAF: